Time;durP1;ratioP1;P1;durP2;ratioP2;P2;SDS_P1;SDS_P2;PMS_P1;PMS_P2;Temp;Humidity;BMP_temperature;BMP_pressure;BME280_temperature;BME280_humidity;BME280_pressure;Samples;Min_cycle;Max_cycle;Signal;HPM_P1;HPM_P2
2022/04/12 00:02:00;;;;;;;5.63;2.38;;;6.60;99.90;;;;;;6248947;22;20045;-75
2022/04/12 00:04:26;;;;;;;8.32;2.47;;;6.60;99.90;;;;;;6223875;22;20445;-75
2022/04/12 00:06:51;;;;;;;8.15;2.92;;;6.60;99.90;;;;;;6249207;22;20024;-75
2022/04/12 00:09:18;;;;;;;5.55;2.65;;;6.60;99.90;;;;;;6274573;22;20050;-75
2022/04/12 00:11:48;;;;;;;5.68;2.67;;;6.50;99.90;;;;;;6249793;22;20023;-75
2022/04/12 00:14:14;;;;;;;9.95;2.92;;;6.50;99.90;;;;;;6274369;22;20065;-74
2022/04/12 00:16:40;;;;;;;10.52;3.13;;;6.50;99.90;;;;;;6276138;22;20096;-74
2022/04/12 00:19:07;;;;;;;5.50;3.03;;;6.50;99.90;;;;;;6276394;22;20027;-76
2022/04/12 00:21:34;;;;;;;5.90;2.58;;;6.50;99.90;;;;;;6274367;22;20023;-75
2022/04/12 00:24:06;;;;;;;8.10;2.90;;;6.50;99.90;;;;;;6277149;22;20024;-76
2022/04/12 00:26:54;;;;;;;5.45;3.15;;;6.40;99.90;;;;;;6248712;22;20019;-76
2022/04/12 00:29:34;;;;;;;9.05;4.05;;;6.40;99.90;;;;;;6217030;23;20024;-76
2022/04/12 00:32:00;;;;;;;6.00;2.47;;;6.40;99.90;;;;;;6196170;23;20473;-77
2022/04/12 00:34:26;;;;;;;10.93;3.22;;;6.40;99.90;;;;;;6222622;23;20059;-76
2022/04/12 00:36:52;;;;;;;7.43;3.55;;;6.40;99.90;;;;;;6219306;23;20123;-76
2022/04/12 00:39:19;;;;;;;6.45;3.00;;;6.30;99.90;;;;;;6242516;23;20155;-75
2022/04/12 00:41:49;;;;;;;8.00;3.42;;;6.30;99.90;;;;;;6216394;23;20452;-75
2022/04/12 00:44:18;;;;;;;8.10;3.72;;;6.30;99.90;;;;;;6242177;23;20063;-75
2022/04/12 00:46:43;;;;;;;8.13;2.92;;;6.30;99.90;;;;;;6216154;23;20020;-75
2022/04/12 00:49:13;;;;;;;12.07;4.38;;;6.20;99.90;;;;;;6217708;23;20074;-74
2022/04/12 00:51:39;;;;;;;7.90;3.15;;;6.20;99.90;;;;;;6242170;23;20082;-75
2022/04/12 00:54:06;;;;;;;8.10;3.00;;;6.20;99.90;;;;;;6241223;23;20031;-75
2022/04/12 00:56:35;;;;;;;7.28;3.22;;;6.20;99.90;;;;;;6240954;23;20102;-75
2022/04/12 00:59:07;;;;;;;7.22;3.00;;;6.10;99.90;;;;;;6191426;23;20082;-76
2022/04/12 01:01:33;;;;;;;6.70;3.30;;;6.10;99.90;;;;;;6216403;23;20111;-74
2022/04/12 01:04:00;;;;;;;7.80;3.50;;;6.10;99.90;;;;;;6191531;23;20511;-75
2022/04/12 01:06:35;;;;;;;;;;;6.00;99.90;;;;;;6193118;23;20028;-75
2022/04/12 01:09:09;;;;;;;7.68;3.22;;;6.00;99.90;;;;;;6217890;23;19915;-75
2022/04/12 01:11:40;;;;;;;10.65;4.00;;;6.00;99.90;;;;;;6216520;23;20060;-75
2022/04/12 01:14:11;;;;;;;10.43;3.33;;;6.00;99.90;;;;;;6217239;23;20523;-76
2022/04/12 01:16:37;;;;;;;7.15;3.08;;;5.90;99.90;;;;;;6220070;23;20020;-76
2022/04/12 01:19:03;;;;;;;8.00;3.13;;;5.90;99.90;;;;;;6203682;22;20107;-74
2022/04/12 01:21:41;;;;;;;7.60;3.30;;;5.90;99.90;;;;;;6277497;22;20461;-75
2022/04/12 01:24:08;;;;;;;6.10;2.75;;;5.90;99.90;;;;;;6248279;22;20074;-75
2022/04/12 01:26:34;;;;;;;10.77;3.83;;;5.90;99.90;;;;;;6273740;22;20102;-75
2022/04/12 01:29:01;;;;;;;8.63;3.75;;;5.80;99.90;;;;;;6273455;22;20121;-75
2022/04/12 01:31:28;;;;;;;7.82;3.30;;;5.80;99.90;;;;;;6247444;22;20379;-74
2022/04/12 01:33:58;;;;;;;12.00;3.60;;;5.80;99.90;;;;;;6247316;22;20020;-76
2022/04/12 01:36:23;;;;;;;9.40;3.83;;;5.80;99.90;;;;;;6197689;22;20019;-75
2022/04/12 01:38:49;;;;;;;6.90;3.88;;;5.80;99.90;;;;;;6273404;22;20022;-77
2022/04/12 01:41:17;;;;;;;7.45;3.42;;;5.80;99.90;;;;;;6273610;22;20024;-75
2022/04/12 01:43:47;;;;;;;10.82;4.63;;;5.90;99.90;;;;;;6275031;22;20020;-75
2022/04/12 01:46:20;;;;;;;9.52;4.00;;;5.90;99.90;;;;;;6273110;22;20462;-75
2022/04/12 01:48:47;;;;;;;17.33;4.18;;;5.90;99.90;;;;;;6273345;22;20019;-74
2022/04/12 01:51:13;;;;;;;7.70;3.72;;;5.90;99.90;;;;;;6273606;22;20351;-76
2022/04/12 01:53:39;;;;;;;7.15;4.03;;;5.90;99.90;;;;;;6273258;22;20024;-75
2022/04/12 01:56:08;;;;;;;21.80;5.75;;;5.90;99.90;;;;;;6247301;22;20022;-75
2022/04/12 01:58:38;;;;;;;11.73;4.47;;;5.90;99.90;;;;;;6249688;22;20028;-75
2022/04/12 02:01:05;;;;;;;8.98;3.83;;;5.90;99.90;;;;;;6277111;22;20019;-74
2022/04/12 02:03:42;;;;;;;9.82;4.38;;;6.00;99.90;;;;;;6248432;22;20031;-75
2022/04/12 02:06:12;;;;;;;10.70;4.38;;;6.00;99.90;;;;;;6273103;22;20020;-76
2022/04/12 02:08:43;;;;;;;11.07;4.50;;;6.00;99.90;;;;;;6248007;22;20023;-76
2022/04/12 02:11:16;;;;;;;9.95;4.38;;;5.90;99.90;;;;;;6248891;22;20075;-76
2022/04/12 02:13:45;;;;;;;9.65;4.57;;;6.00;99.90;;;;;;6248936;22;20059;-74
2022/04/12 02:16:13;;;;;;;9.05;5.05;;;5.90;99.90;;;;;;6273178;22;20019;-75
2022/04/12 02:18:40;;;;;;;8.88;4.47;;;5.90;99.90;;;;;;6223054;22;20027;-75
2022/04/12 02:21:09;;;;;;;10.00;5.47;;;5.90;99.90;;;;;;6275076;22;20032;-75
2022/04/12 02:23:42;;;;;;;12.20;4.82;;;5.90;99.90;;;;;;6272741;22;20329;-76
2022/04/12 02:26:09;;;;;;;9.05;5.25;;;5.90;99.90;;;;;;6222773;22;20035;-75
2022/04/12 02:28:35;;;;;;;12.10;4.85;;;5.90;99.90;;;;;;6272904;22;20051;-76
2022/04/12 02:31:01;;;;;;;13.70;5.53;;;5.90;99.90;;;;;;6272917;22;20051;-75
2022/04/12 02:33:27;;;;;;;8.93;4.65;;;5.90;99.90;;;;;;6247253;22;20106;-74
2022/04/12 02:35:53;;;;;;;10.27;4.95;;;5.90;99.90;;;;;;6246897;22;20059;-74
2022/04/12 02:38:18;;;;;;;11.18;5.55;;;5.90;99.90;;;;;;6274893;22;20058;-75
2022/04/12 02:40:45;;;;;;;8.60;4.97;;;5.90;99.90;;;;;;6275260;22;20095;-75
2022/04/12 02:43:11;;;;;;;14.40;5.60;;;5.90;99.90;;;;;;6276594;22;20051;-76
2022/04/12 02:45:37;;;;;;;10.35;5.45;;;5.90;99.90;;;;;;6277911;22;20024;-75
2022/04/12 02:48:04;;;;;;;10.18;5.28;;;5.90;99.90;;;;;;6276819;22;20035;-75
2022/04/12 02:50:30;;;;;;;11.80;5.70;;;5.90;99.90;;;;;;6274803;22;20012;-75
2022/04/12 02:52:59;;;;;;;10.73;5.47;;;5.90;99.90;;;;;;6272789;22;20020;-76
2022/04/12 02:55:26;;;;;;;11.35;4.97;;;5.90;99.90;;;;;;6247163;22;20103;-76
2022/04/12 02:57:52;;;;;;;13.90;5.90;;;5.90;99.90;;;;;;6272804;22;20471;-74
2022/04/12 03:00:19;;;;;;;11.35;5.20;;;5.90;99.90;;;;;;6246939;22;20027;-75
2022/04/12 03:02:51;;;;;;;12.88;5.72;;;5.90;99.90;;;;;;6271082;22;20022;-74
2022/04/12 03:05:17;;;;;;;10.32;6.28;;;6.00;99.90;;;;;;6274592;22;20020;-74
2022/04/12 03:07:44;;;;;;;9.38;5.43;;;5.90;99.90;;;;;;6272724;22;20059;-75
2022/04/12 03:10:11;;;;;;;10.38;5.68;;;5.90;99.90;;;;;;6272941;22;20513;-75
2022/04/12 03:12:38;;;;;;;10.10;5.85;;;5.90;99.90;;;;;;6272297;22;20389;-75
2022/04/12 03:15:08;;;;;;;11.02;5.88;;;5.90;99.90;;;;;;6273056;22;20023;-75
2022/04/12 03:17:34;;;;;;;11.05;5.70;;;5.90;99.90;;;;;;6247669;22;20031;-74
2022/04/12 03:20:00;;;;;;;12.23;6.03;;;5.90;99.90;;;;;;6272982;22;20020;-74
2022/04/12 03:22:26;;;;;;;13.68;6.28;;;5.90;99.90;;;;;;6271168;22;20428;-75
2022/04/12 03:24:52;;;;;;;12.30;5.90;;;5.90;99.90;;;;;;6249525;22;20466;-75
2022/04/12 03:27:17;;;;;;;10.02;6.82;;;5.90;99.90;;;;;;6273997;22;20015;-73
2022/04/12 03:29:44;;;;;;;9.68;5.93;;;5.90;99.90;;;;;;6272819;22;20210;-74
2022/04/12 03:32:19;;;;;;;11.23;5.68;;;5.90;99.90;;;;;;6274789;22;20328;-74
2022/04/12 03:34:46;;;;;;;10.73;6.00;;;5.90;99.90;;;;;;6274908;22;20054;-75
2022/04/12 03:37:14;;;;;;;10.55;5.68;;;5.80;99.90;;;;;;6275629;22;20038;-75
2022/04/12 03:39:40;;;;;;;16.10;7.50;;;5.80;99.90;;;;;;6275297;22;20042;-74
2022/04/12 03:42:11;;;;;;;10.02;6.45;;;5.80;99.90;;;;;;6275289;22;20023;-74
2022/04/12 03:44:41;;;;;;;11.98;7.30;;;5.80;99.90;;;;;;6272176;22;20023;-75
2022/04/12 03:47:08;;;;;;;11.27;6.35;;;5.80;99.90;;;;;;6240512;23;20016;-75
2022/04/12 03:49:40;;;;;;;13.70;6.63;;;5.70;99.90;;;;;;6240427;23;20023;-75
2022/04/12 03:52:10;;;;;;;10.80;6.72;;;5.80;99.90;;;;;;6215870;23;20020;-75
2022/04/12 03:54:36;;;;;;;13.82;6.97;;;5.70;99.90;;;;;;6215083;23;20023;-75
2022/04/12 03:57:03;;;;;;;9.98;6.47;;;5.70;99.90;;;;;;6215180;23;20020;-75
2022/04/12 03:59:28;;;;;;;13.52;7.45;;;5.70;99.90;;;;;;6214964;23;20028;-75
2022/04/12 04:01:54;;;;;;;14.75;7.57;;;5.70;99.90;;;;;;6214684;23;20062;-75
2022/04/12 04:04:20;;;;;;;15.98;8.10;;;5.70;99.90;;;;;;6240072;23;20032;-74
2022/04/12 04:06:46;;;;;;;15.93;7.97;;;5.70;99.90;;;;;;6240630;23;20032;-75
2022/04/12 04:09:15;;;;;;;10.48;6.80;;;5.70;99.90;;;;;;6218768;23;20024;-76
2022/04/12 04:11:43;;;;;;;9.95;6.53;;;5.70;99.90;;;;;;6218424;22;20452;-74
2022/04/12 04:14:10;;;;;;;11.63;6.43;;;5.60;99.90;;;;;;6240608;23;20020;-75
2022/04/12 04:16:38;;;;;;;12.82;7.30;;;5.70;99.90;;;;;;6215444;23;20030;-75
2022/04/12 04:19:04;;;;;;;13.50;7.25;;;5.70;99.90;;;;;;6270285;22;20036;-75
2022/04/12 04:21:30;;;;;;;14.05;7.28;;;5.70;99.90;;;;;;6272195;22;20020;-75
2022/04/12 04:24:05;;;;;;;14.05;6.43;;;5.70;99.90;;;;;;6329223;22;20018;-74
2022/04/12 04:26:32;;;;;;;11.57;6.88;;;5.70;99.90;;;;;;6309241;22;20030;-75
2022/04/12 04:28:58;;;;;;;11.38;7.20;;;5.70;99.90;;;;;;6336132;22;20019;-74
2022/04/12 04:31:24;;;;;;;13.80;6.95;;;5.80;99.90;;;;;;6308399;22;20030;-74
2022/04/12 04:33:50;;;;;;;14.13;7.13;;;5.70;99.90;;;;;;6335988;22;20030;-74
2022/04/12 04:36:16;;;;;;;15.82;8.18;;;5.80;99.90;;;;;;6333477;22;20027;-75
2022/04/12 04:38:42;;;;;;;12.10;7.15;;;5.70;99.90;;;;;;6304657;22;20026;-75
2022/04/12 04:41:13;;;;;;;19.00;7.18;;;5.80;99.90;;;;;;6333521;22;20019;-76
2022/04/12 04:43:39;;;;;;;14.63;7.38;;;5.80;99.90;;;;;;6309956;22;20023;-75
2022/04/12 04:46:05;;;;;;;16.67;8.30;;;5.80;99.90;;;;;;6309685;22;20052;-75
2022/04/12 04:48:31;;;;;;;12.35;7.72;;;5.80;99.90;;;;;;6310004;22;20067;-76
2022/04/12 04:50:56;;;;;;;12.75;7.47;;;5.80;99.90;;;;;;6362649;22;20063;-75
2022/04/12 04:53:22;;;;;;;14.27;7.55;;;5.80;99.90;;;;;;6310086;22;20023;-75
2022/04/12 04:55:48;;;;;;;14.27;7.20;;;5.80;99.90;;;;;;6310105;22;20023;-75
2022/04/12 04:58:37;;;;;;;14.23;8.32;;;5.80;99.90;;;;;;6286170;22;20022;-74
2022/04/12 05:01:14;;;;;;;15.93;8.20;;;5.80;99.90;;;;;;6218395;23;20031;-75
2022/04/12 05:03:40;;;;;;;14.43;8.02;;;5.80;99.90;;;;;;6191555;23;20047;-75
2022/04/12 05:06:06;;;;;;;14.55;7.65;;;5.90;99.90;;;;;;6166320;23;20070;-74
2022/04/12 05:08:32;;;;;;;16.42;7.30;;;5.90;99.90;;;;;;6216744;23;20116;-75
2022/04/12 05:11:03;;;;;;;25.38;8.00;;;5.90;99.90;;;;;;6216673;23;20016;-74
2022/04/12 05:13:32;;;;;;;13.00;7.53;;;5.90;99.90;;;;;;6217098;23;20052;-74
2022/04/12 05:15:58;;;;;;;14.38;7.50;;;5.90;99.90;;;;;;6216477;23;20024;-74
2022/04/12 05:18:24;;;;;;;13.23;7.97;;;6.00;99.90;;;;;;6216594;23;20027;-75
2022/04/12 05:20:50;;;;;;;12.65;7.30;;;6.00;99.90;;;;;;6216477;23;20103;-75
2022/04/12 05:23:17;;;;;;;10.98;6.93;;;6.10;99.90;;;;;;6191299;23;20447;-74
2022/04/12 05:26:09;;;;;;;13.77;7.00;;;6.10;99.90;;;;;;6240267;23;20170;-74
2022/04/12 05:28:35;;;;;;;11.50;7.15;;;6.20;99.90;;;;;;6216445;23;20024;-74
2022/04/12 05:31:02;;;;;;;14.85;7.35;;;6.20;99.90;;;;;;6241727;23;20066;-74
2022/04/12 05:33:28;;;;;;;14.13;7.10;;;6.30;99.90;;;;;;6216075;23;20024;-74
2022/04/12 05:35:54;;;;;;;13.52;7.38;;;6.40;99.90;;;;;;6216144;23;20074;-75
2022/04/12 05:38:20;;;;;;;12.93;7.60;;;6.40;99.90;;;;;;6217658;23;20095;-76
2022/04/12 05:40:46;;;;;;;13.73;7.57;;;6.50;99.90;;;;;;6216993;23;20066;-76
2022/04/12 05:43:12;;;;;;;13.15;6.95;;;6.60;99.90;;;;;;6215743;23;20103;-76
2022/04/12 05:45:38;;;;;;;17.45;7.45;;;6.60;99.90;;;;;;6215887;23;20028;-75
2022/04/12 05:48:05;;;;;;;14.27;7.53;;;6.60;99.90;;;;;;6190838;23;20024;-76
2022/04/12 05:50:36;;;;;;;13.07;7.72;;;6.70;99.90;;;;;;6210699;22;20056;-75
2022/04/12 05:53:03;;;;;;;12.48;7.55;;;6.70;99.90;;;;;;6358226;22;20019;-74
2022/04/12 05:55:30;;;;;;;11.75;7.47;;;6.80;99.90;;;;;;6337396;22;20097;-75
2022/04/12 05:58:03;;;;;;;13.60;7.55;;;6.80;99.90;;;;;;6309008;22;20387;-74
2022/04/12 06:00:31;;;;;;;11.18;7.07;;;6.80;99.90;;;;;;6337407;22;20073;-74
2022/04/12 06:02:57;;;;;;;15.15;7.65;;;6.80;99.90;;;;;;6283602;22;20030;-74
2022/04/12 06:05:26;;;;;;;11.98;7.35;;;6.90;99.90;;;;;;6309381;22;20505;-76
2022/04/12 06:07:54;;;;;;;14.95;7.40;;;6.90;99.90;;;;;;6337511;22;20023;-76
2022/04/12 06:10:22;;;;;;;14.93;7.22;;;6.90;99.90;;;;;;6362370;22;20026;-75
2022/04/12 06:12:50;;;;;;;14.05;8.18;;;7.00;99.90;;;;;;6283408;22;20094;-76
2022/04/12 06:15:16;;;;;;;12.65;7.63;;;7.00;99.90;;;;;;6310404;22;20075;-76
2022/04/12 06:17:42;;;;;;;19.30;8.13;;;7.00;99.90;;;;;;6313377;22;20019;-75
2022/04/12 06:20:18;;;;;;;17.33;7.90;;;7.10;99.90;;;;;;6337639;22;20023;-74
2022/04/12 06:22:44;;;;;;;12.15;7.20;;;7.10;99.90;;;;;;6309547;22;20018;-76
2022/04/12 06:25:12;;;;;;;12.60;7.65;;;7.10;99.90;;;;;;6337473;22;20320;-75
2022/04/12 06:27:45;;;;;;;16.25;8.30;;;7.20;99.90;;;;;;6309585;22;20090;-75
2022/04/12 06:30:14;;;;;;;14.40;8.40;;;7.20;99.90;;;;;;6259308;22;20051;-76
2022/04/12 09:11:25;;;;;;;15.27;8.82;;;13.90;96.20;;;;;;5149967;27;20991;-75
2022/04/12 09:14:00;;;;;;;16.45;10.73;;;14.00;96.90;;;;;;5114341;27;20070;-76
2022/04/12 09:16:28;;;;;;;12.98;7.57;;;13.90;96.20;;;;;;5150307;27;20061;-76
2022/04/12 09:18:55;;;;;;;14.60;8.45;;;13.80;96.40;;;;;;5131386;27;20042;-76
2022/04/12 09:21:24;;;;;;;11.93;7.88;;;13.70;96.20;;;;;;5114311;27;20446;-76
2022/04/12 09:23:52;;;;;;;12.15;8.18;;;13.70;96.20;;;;;;5131333;27;20053;-76
2022/04/12 09:26:25;;;;;;;14.48;8.07;;;13.90;95.40;;;;;;5096330;27;20563;-76
2022/04/12 09:28:56;;;;;;;11.55;8.02;;;14.00;94.90;;;;;;5131174;27;20049;-76
2022/04/12 09:31:23;;;;;;;12.02;7.95;;;14.20;95.50;;;;;;5131095;27;20558;-76
2022/04/12 09:33:52;;;;;;;13.32;9.07;;;14.50;95.20;;;;;;5131046;27;20051;-76
2022/04/12 09:36:18;;;;;;;14.60;8.35;;;14.80;94.50;;;;;;5131227;27;20074;-77
2022/04/12 09:38:45;;;;;;;13.82;8.52;;;15.00;94.20;;;;;;5131600;27;20049;-77
2022/04/12 09:41:19;;;;;;;11.52;8.25;;;15.20;94.70;;;;;;5131046;27;20050;-76
2022/04/12 09:44:08;;;;;;;13.15;8.25;;;15.60;95.00;;;;;;5131008;27;20104;-76
2022/04/12 09:46:42;;;;;;;12.88;8.23;;;15.70;93.30;;;;;;5131256;27;20106;-77
2022/04/12 09:49:15;;;;;;;10.60;8.07;;;15.60;93.80;;;;;;5114031;27;20341;-76
2022/04/12 09:51:48;;;;;;;13.32;8.60;;;15.80;93.40;;;;;;5113913;27;20046;-76
2022/04/12 09:54:22;;;;;;;14.48;8.07;;;16.00;93.10;;;;;;5130458;27;20051;-77
2022/04/12 09:56:49;;;;;;;13.53;8.87;;;16.10;93.40;;;;;;5131035;27;20050;-77
2022/04/12 09:59:15;;;;;;;15.65;8.93;;;16.10;93.00;;;;;;5130710;27;20300;-76
2022/04/12 10:01:41;;;;;;;13.57;8.35;;;16.20;93.10;;;;;;5116027;28;20444;-76
2022/04/12 10:04:17;;;;;;;14.07;9.18;;;16.40;93.10;;;;;;5092814;28;20047;-76
2022/04/12 10:06:44;;;;;;;13.30;8.00;;;16.50;92.60;;;;;;5093293;28;20046;-77
2022/04/12 10:09:14;;;;;;;11.45;8.63;;;16.50;92.40;;;;;;5110045;27;20078;-76
2022/04/12 10:11:46;;;;;;;13.13;8.60;;;16.30;91.90;;;;;;5109607;28;20087;-76
2022/04/12 10:14:12;;;;;;;13.65;8.50;;;16.40;91.90;;;;;;5092947;28;20055;-76
2022/04/12 10:16:42;;;;;;;13.05;8.73;;;16.70;92.80;;;;;;5109758;28;20059;-76
2022/04/12 10:19:08;;;;;;;13.40;7.95;;;16.80;92.10;;;;;;5092915;28;20409;-76
2022/04/12 10:21:39;;;;;;;13.52;9.02;;;16.90;92.20;;;;;;5067509;28;20062;-76
2022/04/12 10:24:07;;;;;;;13.38;9.25;;;17.10;92.10;;;;;;5096039;28;20050;-77
2022/04/12 10:26:33;;;;;;;10.95;8.25;;;17.10;91.80;;;;;;5095772;28;20047;-76
2022/04/12 10:29:01;;;;;;;12.45;8.55;;;16.90;91.80;;;;;;5095981;28;20135;-76
2022/04/12 10:31:32;;;;;;;15.70;8.55;;;17.00;91.00;;;;;;5095665;28;20054;-77
2022/04/12 10:34:05;;;;;;;15.65;9.98;;;17.10;90.50;;;;;;5095243;28;20048;-76
2022/04/12 10:37:05;;;;;;;14.95;9.38;;;17.10;90.20;;;;;;5095791;28;20051;-77
2022/04/12 10:39:47;;;;;;;17.05;8.18;;;17.10;89.10;;;;;;5094847;28;20151;-76
2022/04/12 10:42:37;;;;;;;12.38;8.93;;;17.40;89.70;;;;;;5079026;28;20090;-76
2022/04/12 10:45:14;;;;;;;13.57;8.60;;;17.70;90.20;;;;;;5094577;28;20070;-77
2022/04/12 10:47:43;;;;;;;15.00;9.30;;;17.80;90.60;;;;;;5095635;28;20052;-77
2022/04/12 10:50:11;;;;;;;12.50;8.57;;;18.00;88.20;;;;;;5078254;28;20082;-76
2022/04/12 10:52:43;;;;;;;13.90;9.25;;;18.20;89.50;;;;;;5095476;28;20072;-76
2022/04/12 10:55:14;;;;;;;15.18;9.88;;;18.50;86.70;;;;;;5038175;28;20521;-77
2022/04/12 10:57:46;;;;;;;12.40;9.27;;;18.70;83.90;;;;;;5054379;28;20482;-76
2022/04/12 11:00:17;;;;;;;13.80;9.73;;;18.80;77.50;;;;;;5038347;28;20136;-77
2022/04/12 11:02:47;;;;;;;13.77;8.55;;;18.90;83.00;;;;;;5056963;28;20069;-76
2022/04/12 11:05:38;;;;;;;12.40;9.32;;;18.90;82.90;;;;;;5073950;28;20063;-76
2022/04/12 11:08:13;;;;;;;13.02;9.55;;;18.80;82.40;;;;;;5073594;28;20048;-76
2022/04/12 11:10:42;;;;;;;15.00;8.98;;;18.90;81.80;;;;;;5056631;28;20174;-77
2022/04/12 11:13:11;;;;;;;12.02;9.13;;;19.10;79.30;;;;;;5073321;28;20192;-76
2022/04/12 11:15:54;;;;;;;14.40;10.07;;;19.00;74.80;;;;;;5056762;28;20043;-76
2022/04/12 11:18:58;;;;;;;16.80;10.00;;;19.10;76.60;;;;;;5090593;28;20145;-77
2022/04/12 11:21:51;;;;;;;14.63;9.83;;;19.30;73.50;;;;;;5074369;28;20151;-76
2022/04/12 11:24:25;;;;;;;13.18;9.48;;;19.30;76.20;;;;;;5040154;28;20081;-76
2022/04/12 11:27:12;;;;;;;13.18;10.40;;;19.40;80.20;;;;;;5073032;28;20048;-76
2022/04/12 11:29:39;;;;;;;13.95;9.35;;;19.70;79.10;;;;;;5073370;28;20087;-77
2022/04/12 11:32:06;;;;;;;12.70;9.45;;;19.60;73.70;;;;;;5055892;28;20091;-76
2022/04/12 11:34:32;;;;;;;14.23;9.40;;;19.60;76.30;;;;;;5072750;28;20048;-76
2022/04/12 11:37:00;;;;;;;16.27;9.27;;;20.10;78.20;;;;;;5056388;28;20510;-77
2022/04/12 11:39:29;;;;;;;12.73;9.73;;;20.00;68.60;;;;;;5100879;27;20528;-76
2022/04/12 11:42:08;;;;;;;12.35;9.43;;;20.00;71.70;;;;;;5114866;27;20043;-76
2022/04/12 11:44:39;;;;;;;16.50;10.07;;;19.80;71.50;;;;;;5116065;27;20051;-76
2022/04/12 11:47:10;;;;;;;17.15;10.38;;;19.90;74.90;;;;;;5114602;27;20051;-75
2022/04/12 11:49:41;;;;;;;15.32;9.98;;;19.90;73.50;;;;;;5114532;27;20170;-75
2022/04/12 11:52:15;;;;;;;14.27;10.20;;;19.90;73.60;;;;;;5130926;27;20082;-76
2022/04/12 11:54:45;;;;;;;15.48;9.60;;;19.80;72.40;;;;;;5097818;27;20043;-75
2022/04/12 11:57:15;;;;;;;14.43;9.75;;;19.60;71.40;;;;;;5130397;27;20049;-76
2022/04/12 12:00:08;;;;;;;14.63;9.23;;;19.40;69.40;;;;;;5114650;27;20112;-75
2022/04/12 12:03:00;;;;;;;14.93;9.32;;;19.30;71.50;;;;;;5094177;28;20047;-75
2022/04/12 12:05:25;;;;;;;14.85;9.98;;;19.50;71.70;;;;;;5094145;28;20048;-75
2022/04/12 12:08:00;;;;;;;14.85;9.68;;;19.70;75.60;;;;;;5093744;28;20118;-76
2022/04/12 12:10:29;;;;;;;14.75;9.00;;;19.60;70.40;;;;;;5111885;28;20060;-75
2022/04/12 12:12:55;;;;;;;14.63;9.50;;;19.60;72.70;;;;;;5076610;28;20058;-75
2022/04/12 12:15:22;;;;;;;15.75;9.73;;;19.60;74.00;;;;;;5093639;28;20445;-75
2022/04/12 12:18:09;;;;;;;16.40;10.32;;;19.60;72.20;;;;;;5076941;28;20048;-76
2022/04/12 12:20:40;;;;;;;15.38;10.27;;;19.70;69.70;;;;;;5093131;28;20130;-76
2022/04/12 12:23:09;;;;;;;13.00;9.85;;;19.80;71.40;;;;;;5093530;28;20043;-76
2022/04/12 12:25:57;;;;;;;13.82;9.40;;;19.70;69.60;;;;;;5076855;28;20051;-76
2022/04/12 12:28:27;;;;;;;12.50;8.93;;;19.70;74.00;;;;;;5093390;28;20058;-75
2022/04/12 12:31:01;;;;;;;15.68;10.63;;;19.60;75.10;;;;;;5093698;28;20173;-76
2022/04/12 12:33:43;;;;;;;13.60;9.80;;;19.40;73.10;;;;;;5112336;28;20047;-76
2022/04/12 12:36:23;;;;;;;15.88;9.68;;;19.30;74.20;;;;;;5092980;28;20051;-75
2022/04/12 12:38:50;;;;;;;15.77;9.88;;;19.30;74.80;;;;;;5076966;28;20051;-76
2022/04/12 12:41:27;;;;;;;13.75;9.32;;;19.20;78.70;;;;;;5076847;28;20059;-76
2022/04/12 12:44:17;;;;;;;11.88;8.93;;;19.30;78.70;;;;;;5093645;28;20047;-76
2022/04/12 12:47:16;;;;;;;14.38;8.70;;;19.40;73.00;;;;;;5093739;28;20047;-75
2022/04/12 12:49:45;;;;;;;14.88;9.23;;;19.50;72.90;;;;;;5052602;28;20510;-75
2022/04/12 12:52:17;;;;;;;15.52;9.57;;;19.30;74.20;;;;;;5068268;28;20083;-74
2022/04/12 12:54:55;;;;;;;15.30;9.63;;;19.20;75.40;;;;;;5028710;28;20053;-75
2022/04/12 12:58:03;;;;;;;14.27;9.02;;;19.20;76.70;;;;;;4996711;28;20171;-75
2022/04/12 13:00:34;;;;;;;15.65;9.60;;;19.10;78.30;;;;;;5013382;28;20048;-75
2022/04/12 13:03:05;;;;;;;12.77;9.10;;;19.10;81.00;;;;;;5015376;28;20110;-75
2022/04/12 13:05:31;;;;;;;15.10;9.45;;;18.90;83.20;;;;;;5030778;28;20041;-75
2022/04/12 13:08:00;;;;;;;12.48;9.80;;;18.80;84.30;;;;;;5032022;28;20165;-75
2022/04/12 13:10:32;;;;;;;13.68;10.02;;;18.80;86.40;;;;;;5047998;28;20591;-75
2022/04/12 13:12:58;;;;;;;18.90;9.68;;;18.70;88.60;;;;;;5031829;28;20049;-75
2022/04/12 13:15:26;;;;;;;17.98;9.20;;;18.60;88.50;;;;;;5047649;28;20067;-75
2022/04/12 13:17:53;;;;;;;14.85;9.88;;;18.50;87.90;;;;;;5048329;28;20052;-75
2022/04/12 13:20:21;;;;;;;16.80;10.05;;;18.60;88.80;;;;;;5031359;28;20060;-75
2022/04/12 13:22:52;;;;;;;15.70;9.40;;;18.50;89.50;;;;;;5032029;28;20130;-75
2022/04/12 13:25:25;;;;;;;13.57;9.98;;;18.50;90.10;;;;;;5054593;28;20056;-74
2022/04/12 13:27:52;;;;;;;16.38;9.38;;;18.50;90.80;;;;;;5050957;28;20190;-74
2022/04/12 13:30:20;;;;;;;14.93;9.82;;;18.60;90.70;;;;;;5050980;28;20075;-75
2022/04/12 13:32:59;;;;;;;14.77;9.50;;;18.50;90.40;;;;;;5032375;28;20059;-75
2022/04/12 13:35:31;;;;;;;15.32;9.80;;;18.60;90.70;;;;;;5091151;28;20088;-75
2022/04/12 13:37:57;;;;;;;13.98;9.23;;;18.80;90.40;;;;;;5091358;28;20391;-75
2022/04/12 13:40:30;;;;;;;13.02;8.85;;;19.00;90.10;;;;;;5090971;28;20040;-75
2022/04/12 13:43:08;;;;;;;20.20;10.25;;;19.20;88.40;;;;;;5090899;28;20097;-74
2022/04/12 13:45:36;;;;;;;15.80;8.20;;;20.00;81.50;;;;;;5091394;28;20477;-76
2022/04/12 13:48:05;;;;;;;15.40;9.40;;;20.80;76.70;;;;;;5074885;28;20051;-75
2022/04/12 13:50:46;;;;;;;15.75;9.20;;;21.60;72.80;;;;;;5075203;28;20134;-75
2022/04/12 13:53:15;;;;;;;16.42;9.55;;;22.50;63.30;;;;;;5091239;28;20139;-75
2022/04/12 13:55:47;;;;;;;14.30;9.77;;;23.00;60.30;;;;;;5092767;28;20058;-75
2022/04/12 13:58:14;;;;;;;14.85;9.68;;;23.20;54.00;;;;;;5096246;28;20055;-75
2022/04/12 14:00:40;;;;;;;15.40;10.05;;;22.50;54.50;;;;;;5107942;28;20452;-75
2022/04/12 14:03:06;;;;;;;15.25;9.23;;;22.30;54.80;;;;;;5091618;28;20040;-75
2022/04/12 14:05:35;;;;;;;16.25;10.05;;;22.90;56.00;;;;;;5093242;28;20043;-75
2022/04/12 14:08:10;;;;;;;15.40;9.77;;;23.50;53.80;;;;;;5071816;28;20055;-76
2022/04/12 14:10:37;;;;;;;14.63;9.75;;;23.60;50.90;;;;;;5022227;28;20427;-75
2022/04/12 14:13:06;;;;;;;17.42;10.20;;;23.40;50.50;;;;;;5038909;28;20045;-76
2022/04/12 14:19:14;;;;;;;16.38;9.23;;;24.50;50.00;;;;;;5070754;28;20145;-76
2022/04/12 14:21:44;;;;;;;17.10;10.48;;;24.90;48.30;;;;;;5054079;28;20052;-75
2022/04/12 14:24:10;;;;;;;17.67;10.13;;;24.80;47.50;;;;;;5052934;28;20052;-76
2022/04/12 14:26:37;;;;;;;18.17;10.77;;;24.70;48.30;;;;;;5037448;28;20056;-76
2022/04/12 14:29:09;;;;;;;16.88;9.90;;;24.50;47.80;;;;;;5053953;28;20094;-76
2022/04/12 14:31:42;;;;;;;18.98;10.15;;;23.90;48.80;;;;;;5015095;28;20057;-75
2022/04/12 14:34:08;;;;;;;16.77;11.57;;;23.20;50.00;;;;;;5030423;28;20146;-75
2022/04/12 14:36:44;;;;;;;19.02;11.35;;;22.90;51.20;;;;;;4999599;28;20060;-75
2022/04/12 14:39:30;;;;;;;20.42;11.20;;;22.30;52.40;;;;;;5031276;28;20064;-75
2022/04/12 14:41:56;;;;;;;20.83;12.07;;;22.10;54.30;;;;;;4998121;28;20172;-75
2022/04/12 14:44:27;;;;;;;17.45;11.57;;;22.00;55.00;;;;;;5015194;28;20073;-75
2022/04/12 14:46:55;;;;;;;26.75;10.88;;;22.80;54.50;;;;;;5018463;28;20087;-76
2022/04/12 14:49:21;;;;;;;18.55;11.75;;;23.50;53.50;;;;;;5017916;28;20041;-75
2022/04/12 14:51:47;;;;;;;22.70;12.27;;;23.50;52.10;;;;;;5033971;28;20059;-76
2022/04/12 14:54:14;;;;;;;17.58;11.15;;;23.70;52.50;;;;;;5033850;28;20072;-75
2022/04/12 14:56:46;;;;;;;20.08;10.98;;;23.40;52.00;;;;;;5034040;28;20071;-75
2022/04/12 14:59:13;;;;;;;20.38;11.68;;;22.90;52.70;;;;;;5001506;28;20182;-76
2022/04/12 15:01:46;;;;;;;;;;;22.80;53.90;;;;;;5055106;28;20529;-75
2022/04/12 15:04:12;;;;;;;20.92;12.55;;;22.70;55.10;;;;;;5112616;28;19927;-75
2022/04/12 15:06:40;;;;;;;21.35;11.70;;;23.30;53.70;;;;;;5111635;28;20517;-76
2022/04/12 18:07:04;;;;;;;20.42;12.80;;;17.60;99.50;;;;;;5090835;28;20829;-73
2022/04/12 18:09:29;;;;;;;23.83;12.60;;;17.40;99.80;;;;;;5072076;28;20484;-73
2022/04/12 18:11:56;;;;;;;21.13;12.93;;;17.30;99.70;;;;;;5072618;28;20052;-74
2022/04/12 18:14:22;;;;;;;17.73;11.77;;;17.30;99.80;;;;;;5072603;28;20056;-74
2022/04/12 18:16:48;;;;;;;16.02;11.40;;;17.20;99.90;;;;;;5072829;28;20107;-74
2022/04/12 18:19:51;;;;;;;21.33;12.32;;;17.10;99.90;;;;;;5054921;28;20487;-74
2022/04/12 18:22:17;;;;;;;19.70;10.23;;;17.10;99.90;;;;;;5072883;28;20059;-73
2022/04/12 18:24:46;;;;;;;18.60;12.10;;;17.00;99.90;;;;;;5073120;28;20036;-74
2022/04/12 18:27:18;;;;;;;18.40;11.77;;;16.90;99.90;;;;;;5072657;28;20075;-74
2022/04/12 18:29:43;;;;;;;17.65;11.88;;;16.80;99.90;;;;;;5072643;28;20044;-74
2022/04/12 18:32:10;;;;;;;19.90;12.70;;;16.70;99.90;;;;;;5072263;28;20060;-74
2022/04/12 18:34:36;;;;;;;23.27;12.15;;;16.70;99.90;;;;;;5072080;28;20055;-75
2022/04/12 18:37:02;;;;;;;20.20;12.00;;;16.70;99.90;;;;;;5071931;28;20078;-75
2022/04/12 18:39:28;;;;;;;19.83;12.57;;;16.50;99.90;;;;;;5072198;28;20178;-74